Time;durP1;ratioP1;P1;durP2;ratioP2;P2;SDS_P1;SDS_P2;PMS_P1;PMS_P2;Temp;Humidity;BMP_temperature;BMP_pressure;BME280_temperature;BME280_humidity;BME280_pressure;Samples;Min_cycle;Max_cycle;Signal;HPM_P1;HPM_P2
2022/06/07 00:00:15;;;;;;;1.10;1.00;;;;;;;;;;4990570;28;20018;-90
2022/06/07 00:02:41;;;;;;;5.15;1.20;;;;;;;;;;4975560;28;20476;-91
2022/06/07 00:05:10;;;;;;;1.20;1.00;;;;;;;;;;4991215;28;20393;-91
2022/06/07 00:07:36;;;;;;;3.08;1.20;;;;;;;;;;4975762;28;20034;-92
2022/06/07 00:10:03;;;;;;;3.90;1.10;;;;;;;;;;4975803;28;20067;-91
2022/06/07 00:12:34;;;;;;;2.38;1.10;;;;;;;;;;4976680;28;20097;-92
2022/06/07 00:15:06;;;;;;;1.48;1.02;;;;;;;;;;4984272;28;20078;-92
2022/06/07 00:17:32;;;;;;;1.67;1.20;;;;;;;;;;4975848;28;20050;-91
2022/06/07 00:20:09;;;;;;;1.23;1.13;;;;;;;;;;4975929;28;20030;-91
2022/06/07 00:22:36;;;;;;;2.05;1.10;;;;;;;;;;4991916;28;20457;-92
2022/06/07 00:25:05;;;;;;;3.20;1.13;;;;;;;;;;4989980;28;20023;-92
2022/06/07 00:27:34;;;;;;;1.20;1.10;;;;;;;;;;4975765;28;20023;-92
2022/06/07 00:30:01;;;;;;;1.40;1.25;;;;;;;;;;4994502;28;20062;-91
2022/06/07 00:32:27;;;;;;;1.30;1.05;;;;;;;;;;4991588;28;20034;-90
2022/06/07 00:35:03;;;;;;;1.20;1.08;;;;;;;;;;4985585;28;20030;-90
2022/06/07 00:37:29;;;;;;;3.38;1.35;;;;;;;;;;4979338;28;20030;-90
2022/06/07 00:39:55;;;;;;;1.70;1.05;;;;;;;;;;4980018;28;20027;-90
2022/06/07 00:42:21;;;;;;;2.45;1.08;;;;;;;;;;4980248;28;20030;-90
2022/06/07 00:44:47;;;;;;;3.45;1.17;;;;;;;;;;4979798;28;20543;-90
2022/06/07 00:47:23;;;;;;;1.15;1.00;;;;;;;;;;4981562;28;20126;-89
2022/06/07 00:49:52;;;;;;;3.33;1.10;;;;;;;;;;4980929;28;20081;-89
2022/06/07 00:52:19;;;;;;;2.63;1.10;;;;;;;;;;4975779;28;20023;-90
2022/06/07 00:54:45;;;;;;;2.55;1.10;;;;;;;;;;4957052;29;20432;-90
2022/06/07 00:57:11;;;;;;;2.22;1.55;;;;;;;;;;4957032;29;20023;-90
2022/06/07 00:59:37;;;;;;;1.95;1.50;;;;;;;;;;4974723;28;20036;-91
2022/06/07 01:02:03;;;;;;;2.60;1.00;;;;;;;;;;4958398;28;20584;-90
2022/06/07 01:04:29;;;;;;;2.15;1.20;;;;;;;;;;4978128;28;20037;-90
2022/06/07 01:12:25;;;;;;;4.88;1.20;;;;;;;;;;4958412;29;20413;-91
2022/06/07 01:14:51;;;;;;;3.88;1.40;;;;;;;;;;4967323;28;20023;-89
2022/06/07 01:17:19;;;;;;;5.07;1.13;;;;;;;;;;4977544;28;20030;-91
2022/06/07 01:19:45;;;;;;;4.95;1.15;;;;;;;;;;4976556;28;20074;-91
2022/06/07 01:22:11;;;;;;;3.65;1.40;;;;;;;;;;4978448;28;20022;-91
2022/06/07 01:24:37;;;;;;;3.13;1.30;;;;;;;;;;4992002;28;20528;-90
2022/06/07 01:27:04;;;;;;;2.13;1.17;;;;;;;;;;4991998;28;20118;-91
2022/06/07 01:29:30;;;;;;;2.40;1.17;;;;;;;;;;4977280;28;20030;-91
2022/06/07 01:31:56;;;;;;;3.95;1.48;;;;;;;;;;4992104;28;20122;-89
2022/06/07 01:34:22;;;;;;;2.03;1.10;;;;;;;;;;4977115;28;20027;-90
2022/06/07 01:36:48;;;;;;;1.23;1.13;;;;;;;;;;4977482;28;20034;-91
2022/06/07 01:41:59;;;;;;;1.40;1.00;;;;;;;;;;4977457;28;20046;-91
2022/06/07 01:44:31;;;;;;;3.08;1.00;;;;;;;;;;4991478;28;20023;-91
2022/06/07 01:47:00;;;;;;;3.30;1.10;;;;;;;;;;4992162;28;20452;-90
2022/06/07 01:49:26;;;;;;;1.92;1.20;;;;;;;;;;4977133;28;20169;-90
2022/06/07 01:51:52;;;;;;;1.25;1.10;;;;;;;;;;4976897;28;20026;-91
2022/06/07 01:54:20;;;;;;;2.83;1.02;;;;;;;;;;4975130;28;20408;-90
2022/06/07 01:56:52;;;;;;;2.28;1.33;;;;;;;;;;4974752;28;20489;-90
2022/06/07 01:59:18;;;;;;;1.25;1.13;;;;;;;;;;4975099;28;20121;-92
2022/06/07 02:01:45;;;;;;;1.95;1.15;;;;;;;;;;4976429;28;20023;-92
2022/06/07 02:04:11;;;;;;;2.47;1.05;;;;;;;;;;4974629;28;20023;-91
2022/06/07 02:06:40;;;;;;;2.58;1.52;;;;;;;;;;4975861;28;20034;-90
2022/06/07 02:09:07;;;;;;;2.60;1.20;;;;;;;;;;4991512;28;20030;-90
2022/06/07 02:11:34;;;;;;;3.08;1.20;;;;;;;;;;4991107;28;20374;-90
2022/06/07 02:14:00;;;;;;;3.17;1.05;;;;;;;;;;4977760;28;20117;-91
2022/06/07 02:16:26;;;;;;;5.68;1.20;;;;;;;;;;4976239;28;20046;-90
2022/06/07 02:18:52;;;;;;;1.30;1.20;;;;;;;;;;4973928;28;20477;-91
2022/06/07 02:21:19;;;;;;;1.65;1.20;;;;;;;;;;4991933;28;20026;-91
2022/06/07 02:23:45;;;;;;;1.20;1.10;;;;;;;;;;4976372;28;20019;-90
2022/06/07 02:26:18;;;;;;;2.58;1.00;;;;;;;;;;4974821;28;20504;-90
2022/06/07 02:28:52;;;;;;;2.20;1.42;;;;;;;;;;4974255;28;20035;-90
2022/06/07 02:31:25;;;;;;;1.27;1.13;;;;;;;;;;4975897;28;20093;-92
2022/06/07 02:33:52;;;;;;;2.75;1.25;;;;;;;;;;4972072;28;20030;-90
2022/06/07 02:41:29;;;;;;;1.45;1.27;;;;;;;;;;4994178;28;20053;-89
2022/06/07 02:46:59;;;;;;;5.65;1.40;;;;;;;;;;4992123;28;20036;-91
2022/06/07 03:00:16;;;;;;;3.60;1.63;;;;;;;;;;5105668;23;20240;-90
2022/06/07 03:02:42;;;;;;;2.92;1.20;;;;;;;;;;4977335;28;20027;-90
2022/06/07 03:07:44;;;;;;;2.92;1.27;;;;;;;;;;5731923;23;20240;-92
2022/06/07 03:10:11;;;;;;;2.00;1.63;;;;;;;;;;4976950;28;20026;-89
2022/06/07 03:16:23;;;;;;;1.77;1.50;;;;;;;;;;5129526;23;20488;-92
2022/06/07 03:25:12;;;;;;;2.80;1.70;;;;;;;;;;4958485;28;20128;-90
2022/06/07 03:27:38;;;;;;;3.40;1.90;;;;;;;;;;4956092;28;20117;-89
2022/06/07 03:41:51;;;;;;;2.13;1.67;;;;;;;;;;5835850;22;20062;-91
2022/06/07 03:44:17;;;;;;;5.63;1.80;;;;;;;;;;4981746;28;20027;-90
2022/06/07 04:05:12;;;;;;;4.68;2.08;;;;;;;;;;5006890;23;20161;-90
2022/06/07 04:10:22;;;;;;;3.42;1.88;;;;;;;;;;4992477;28;20041;-90
2022/06/07 04:22:03;;;;;;;2.13;1.85;;;;;;;;;;4993368;28;20034;-89
2022/06/07 04:27:04;;;;;;;2.22;1.98;;;;;;;;;;5115454;23;20054;-91
2022/06/07 04:29:30;;;;;;;2.75;2.05;;;;;;;;;;5002128;28;20030;-89
2022/06/07 04:31:56;;;;;;;2.22;1.80;;;;;;;;;;4994687;28;20384;-89
2022/06/07 04:40:09;;;;;;;3.25;2.08;;;;;;;;;;4994030;28;20116;-90
2022/06/07 04:42:47;;;;;;;2.80;2.00;;;;;;;;;;4993847;28;20026;-90
2022/06/07 04:48:46;;;;;;;3.17;2.20;;;;;;;;;;4914421;29;20031;-90
2022/06/07 04:51:17;;;;;;;3.88;1.70;;;;;;;;;;4919448;28;20088;-89
2022/06/07 04:53:43;;;;;;;4.07;2.00;;;;;;;;;;5017282;28;20028;-89
2022/06/07 04:56:14;;;;;;;3.15;1.80;;;;;;;;;;5032281;28;20029;-88
2022/06/07 04:58:43;;;;;;;4.60;1.98;;;;;;;;;;5032283;28;20095;-88
2022/06/07 05:15:29;;;;;;;4.03;2.08;;;;;;;;;;5236089;23;20045;-90
2022/06/07 05:23:38;;;;;;;4.22;2.20;;;;;;;;;;5171819;23;20053;-90
2022/06/07 05:28:40;;;;;;;1.83;1.60;;;;;;;;;;4978131;28;20123;-91
2022/06/07 05:34:45;;;;;;;2.28;1.63;;;;;;;;;;4963941;28;20061;-90
2022/06/07 05:37:15;;;;;;;2.90;1.60;;;;;;;;;;4946353;28;20051;-89
2022/06/07 05:57:38;;;;;;;3.28;1.50;;;;;;;;;;5539537;23;20059;-87
2022/06/07 06:00:11;;;;;;;1.60;1.25;;;;;;;;;;4996764;28;20109;-88
2022/06/07 06:02:37;;;;;;;2.40;1.17;;;;;;;;;;4995867;28;20049;-88
2022/06/07 06:10:27;;;;;;;3.38;1.63;;;;;;;;;;5736189;23;20096;-89
2022/06/07 06:13:27;;;;;;;;;;;;;;;;;;;;;
2022/06/07 06:18:39;;;;;;;2.92;1.30;;;;;;;;;;5056919;23;20567;-90
2022/06/07 06:25:02;;;;;;;2.38;1.30;;;;;;;;;;4995650;28;20018;-91
2022/06/07 06:30:25;;;;;;;2.60;1.30;;;;;;;;;;4995909;28;20102;-90
2022/06/07 06:56:29;;;;;;;3.47;1.08;;;;;;;;;;4991209;28;20041;-91
2022/06/07 06:59:45;;;;;;;1.50;1.40;;;;;;;;;;4979404;28;20069;-90
2022/06/07 07:02:13;;;;;;;3.83;1.10;;;;;;;;;;4944510;29;20165;-89
2022/06/07 07:15:52;;;;;;;2.70;1.40;;;;;;;;;;5024942;28;20051;-90
2022/06/07 07:18:18;;;;;;;2.83;1.52;;;;;;;;;;5050728;28;20141;-90
2022/06/07 07:23:48;;;;;;;2.70;1.23;;;;;;;;;;5033792;28;20029;-90
2022/06/07 07:32:37;;;;;;;2.20;1.30;;;;;;;;;;4953192;29;20106;-90
2022/06/07 07:35:29;;;;;;;1.80;1.10;;;;;;;;;;4937551;28;20031;-89
2022/06/07 07:37:57;;;;;;;5.15;1.70;;;;;;;;;;4972290;28;20038;-89
2022/06/07 07:40:45;;;;;;;4.45;1.40;;;;;;;;;;5020458;28;20030;-90
2022/06/07 07:43:11;;;;;;;2.22;1.00;;;;;;;;;;5033000;28;20537;-91
2022/06/07 07:48:57;;;;;;;3.45;1.17;;;;;;;;;;5014004;28;20021;-91
2022/06/07 07:51:25;;;;;;;3.67;1.00;;;;;;;;;;4995703;28;20056;-91
2022/06/07 07:53:52;;;;;;;4.18;1.10;;;;;;;;;;5024548;28;20042;-91
2022/06/07 07:58:54;;;;;;;5.00;1.20;;;;;;;;;;5840813;23;20062;-89
2022/06/07 08:01:24;;;;;;;2.65;1.10;;;;;;;;;;4976597;28;20038;-91
2022/06/07 08:04:01;;;;;;;2.35;0.95;;;;;;;;;;4992688;28;20019;-89
2022/06/07 08:09:02;;;;;;;4.30;1.00;;;;;;;;;;4973100;28;20042;-89
2022/06/07 08:11:30;;;;;;;5.15;1.10;;;;;;;;;;4957207;28;20097;-89
2022/06/07 08:13:56;;;;;;;3.65;1.20;;;;;;;;;;4957374;28;20430;-89
2022/06/07 08:16:23;;;;;;;3.45;1.15;;;;;;;;;;4974371;28;20051;-89
2022/06/07 08:18:49;;;;;;;2.47;1.00;;;;;;;;;;4985692;28;20122;-90
2022/06/07 08:21:20;;;;;;;2.85;1.10;;;;;;;;;;4939202;28;20567;-89
2022/06/07 08:23:46;;;;;;;2.58;0.95;;;;;;;;;;4974525;28;20043;-89
2022/06/07 08:26:12;;;;;;;3.20;1.00;;;;;;;;;;4989086;28;20637;-90
2022/06/07 08:28:40;;;;;;;4.07;1.10;;;;;;;;;;4974391;28;20630;-90
2022/06/07 08:31:10;;;;;;;3.13;1.17;;;;;;;;;;4988859;28;20035;-88
2022/06/07 08:39:06;;;;;;;1.45;1.00;;;;;;;;;;4974446;28;20034;-89
2022/06/07 08:41:32;;;;;;;2.45;0.80;;;;;;;;;;4974467;28;20027;-89
2022/06/07 08:44:13;;;;;;;8.18;1.00;;;;;;;;;;4989646;28;20074;-87
2022/06/07 08:46:42;;;;;;;1.67;0.70;;;;;;;;;;4989163;28;20452;-89
2022/06/07 08:49:10;;;;;;;5.60;1.10;;;;;;;;;;4957622;28;20035;-89
2022/06/07 08:51:40;;;;;;;1.52;1.17;;;;;;;;;;4956191;28;20023;-90
2022/06/07 08:54:13;;;;;;;2.38;1.20;;;;;;;;;;4955167;28;20536;-88
2022/06/07 08:56:39;;;;;;;4.55;1.00;;;;;;;;;;4958956;28;20081;-89
2022/06/07 08:59:10;;;;;;;3.75;1.00;;;;;;;;;;4960169;28;20023;-88
2022/06/07 09:01:36;;;;;;;1.80;1.10;;;;;;;;;;4958991;28;20031;-89
2022/06/07 09:04:09;;;;;;;1.00;0.90;;;;;;;;;;4960066;28;20077;-89
2022/06/07 09:06:37;;;;;;;2.08;0.93;;;;;;;;;;4946705;28;20035;-91
2022/06/07 09:09:03;;;;;;;1.80;0.80;;;;;;;;;;4956190;28;20038;-89
2022/06/07 09:14:42;;;;;;;4.80;1.33;;;;;;;;;;4977724;28;20097;-89
2022/06/07 09:17:19;;;;;;;2.75;0.80;;;;;;;;;;4978012;28;20507;-89
2022/06/07 09:19:46;;;;;;;1.05;0.70;;;;;;;;;;4959566;28;20143;-90
2022/06/07 09:22:17;;;;;;;2.25;0.88;;;;;;;;;;4975614;28;20034;-90
2022/06/07 09:24:58;;;;;;;2.53;1.00;;;;;;;;;;4977508;28;20022;-89
2022/06/07 09:27:26;;;;;;;2.00;0.90;;;;;;;;;;4977379;28;20369;-89
2022/06/07 09:29:52;;;;;;;4.43;0.80;;;;;;;;;;4959624;28;20543;-92
2022/06/07 09:32:19;;;;;;;1.55;0.75;;;;;;;;;;4959617;28;20034;-90
2022/06/07 09:34:51;;;;;;;3.30;0.70;;;;;;;;;;4960094;28;20482;-90
2022/06/07 09:37:21;;;;;;;3.85;1.13;;;;;;;;;;4977268;28;20031;-90
2022/06/07 09:39:51;;;;;;;2.63;0.93;;;;;;;;;;4976781;28;20085;-90
2022/06/07 09:42:20;;;;;;;4.18;0.85;;;;;;;;;;4976705;28;20081;-89
2022/06/07 09:44:54;;;;;;;2.75;0.65;;;;;;;;;;4967823;28;20030;-89
2022/06/07 09:47:25;;;;;;;0.80;0.68;;;;;;;;;;4995877;28;20058;-90
2022/06/07 09:50:11;;;;;;;0.60;0.55;;;;;;;;;;4959446;28;20089;-88
2022/06/07 09:52:44;;;;;;;3.85;1.00;;;;;;;;;;4962470;28;20093;-90
2022/06/07 09:55:16;;;;;;;2.85;1.00;;;;;;;;;;4958966;28;20027;-89
2022/06/07 09:57:43;;;;;;;1.85;0.73;;;;;;;;;;4959946;28;20031;-90
2022/06/07 10:00:16;;;;;;;3.08;0.70;;;;;;;;;;4976947;28;20026;-91
2022/06/07 10:03:01;;;;;;;2.28;1.00;;;;;;;;;;4976065;28;20069;-90
2022/06/07 10:05:39;;;;;;;2.65;0.80;;;;;;;;;;4979421;28;20101;-90
2022/06/07 10:08:24;;;;;;;1.83;0.70;;;;;;;;;;4976254;28;20031;-88
2022/06/07 10:10:54;;;;;;;5.43;1.42;;;;;;;;;;4960340;28;20046;-88
2022/06/07 10:13:20;;;;;;;3.13;1.07;;;;;;;;;;4969021;28;20090;-89
2022/06/07 10:15:50;;;;;;;3.03;0.88;;;;;;;;;;4944151;29;20310;-88
2022/06/07 10:18:28;;;;;;;2.45;1.15;;;;;;;;;;4968951;28;20023;-89
2022/06/07 10:21:04;;;;;;;4.38;1.00;;;;;;;;;;4957044;28;20027;-91
2022/06/07 10:23:49;;;;;;;2.42;0.90;;;;;;;;;;4975039;28;20031;-89
2022/06/07 10:26:24;;;;;;;0.80;0.77;;;;;;;;;;4978646;28;20038;-92
2022/06/07 10:29:18;;;;;;;1.02;0.80;;;;;;;;;;4967462;28;20484;-89
2022/06/07 10:31:50;;;;;;;2.20;0.75;;;;;;;;;;4974741;28;20588;-89
2022/06/07 10:34:16;;;;;;;3.92;0.93;;;;;;;;;;4957349;28;20033;-90
2022/06/07 10:36:56;;;;;;;1.60;0.80;;;;;;;;;;4955731;28;20065;-89
2022/06/07 10:39:22;;;;;;;1.95;1.00;;;;;;;;;;4958421;28;20069;-90
2022/06/07 10:42:02;;;;;;;5.13;1.05;;;;;;;;;;4975267;28;20474;-89
2022/06/07 10:44:31;;;;;;;1.98;0.70;;;;;;;;;;4958139;28;20023;-89
2022/06/07 10:46:59;;;;;;;5.32;0.80;;;;;;;;;;4978427;28;20093;-91
2022/06/07 10:49:33;;;;;;;2.90;1.45;;;;;;;;;;4978170;28;20039;-91
2022/06/07 10:52:24;;;;;;;1.52;0.98;;;;;;;;;;4958267;28;20066;-89
2022/06/07 10:55:02;;;;;;;5.10;0.88;;;;;;;;;;4956824;28;20447;-90
2022/06/07 10:57:54;;;;;;;2.30;0.90;;;;;;;;;;4959847;28;20042;-89
2022/06/07 11:00:33;;;;;;;2.33;0.80;;;;;;;;;;4959619;28;20035;-89
2022/06/07 11:03:08;;;;;;;3.40;0.93;;;;;;;;;;4963823;28;20050;-93
2022/06/07 11:11:07;;;;;;;3.58;0.77;;;;;;;;;;4975559;28;20056;-88
2022/06/07 11:13:52;;;;;;;2.10;0.77;;;;;;;;;;4981347;28;20457;-90
2022/06/07 11:16:27;;;;;;;2.83;0.85;;;;;;;;;;4956808;28;20037;-89
2022/06/07 11:18:53;;;;;;;5.22;0.88;;;;;;;;;;4957997;28;20019;-89
2022/06/07 11:21:55;;;;;;;1.25;0.55;;;;;;;;;;4957465;28;20027;-90
2022/06/07 11:24:26;;;;;;;3.95;0.77;;;;;;;;;;4918560;29;20507;-90
2022/06/07 11:26:52;;;;;;;2.55;0.77;;;;;;;;;;4964864;28;20042;-91
2022/06/07 11:29:34;;;;;;;3.05;0.63;;;;;;;;;;4960577;28;20039;-90
2022/06/07 11:32:02;;;;;;;0.70;0.63;;;;;;;;;;4956956;28;20401;-88
2022/06/07 11:34:37;;;;;;;2.20;0.63;;;;;;;;;;4975093;28;20058;-88
2022/06/07 11:37:16;;;;;;;5.20;0.90;;;;;;;;;;4973581;28;20042;-92
2022/06/07 11:39:42;;;;;;;0.68;0.63;;;;;;;;;;4968014;28;20042;-88
2022/06/07 11:42:08;;;;;;;0.93;0.55;;;;;;;;;;4956271;28;20027;-88
2022/06/07 11:44:36;;;;;;;0.40;0.40;;;;;;;;;;4957088;28;20053;-88
2022/06/07 11:47:09;;;;;;;1.70;0.60;;;;;;;;;;4957404;28;20022;-87
2022/06/07 11:49:38;;;;;;;0.80;0.70;;;;;;;;;;4957247;28;20507;-87
2022/06/07 11:52:08;;;;;;;2.33;0.68;;;;;;;;;;4956587;28;20030;-86
2022/06/07 11:54:37;;;;;;;1.77;0.55;;;;;;;;;;4957078;28;20203;-87
2022/06/07 11:57:18;;;;;;;1.00;0.57;;;;;;;;;;4974474;28;20051;-88
2022/06/07 11:59:46;;;;;;;2.13;0.50;;;;;;;;;;4974392;28;20460;-88
2022/06/07 12:02:15;;;;;;;0.90;0.70;;;;;;;;;;4956625;28;20114;-88
2022/06/07 12:04:41;;;;;;;3.30;0.75;;;;;;;;;;4974130;28;20027;-88
2022/06/07 12:07:07;;;;;;;2.33;0.70;;;;;;;;;;4974277;28;20492;-86
2022/06/07 12:09:34;;;;;;;2.05;1.13;;;;;;;;;;4984614;28;20093;-87
2022/06/07 12:12:10;;;;;;;1.63;0.60;;;;;;;;;;4956200;28;20041;-89
2022/06/07 12:14:38;;;;;;;1.65;0.70;;;;;;;;;;4980187;28;20110;-89
2022/06/07 12:17:18;;;;;;;2.75;0.63;;;;;;;;;;4969838;28;20027;-90
2022/06/07 12:19:45;;;;;;;1.10;0.65;;;;;;;;;;4942091;29;20023;-90
2022/06/07 12:22:23;;;;;;;1.00;0.50;;;;;;;;;;4939388;29;20027;-90
2022/06/07 12:24:54;;;;;;;1.77;0.60;;;;;;;;;;4940030;28;20027;-90
2022/06/07 12:27:21;;;;;;;;;;;;;;;;;;4961873;29;20042;-89
2022/06/07 12:29:47;;;;;;;1.00;0.57;;;;;;;;;;4952532;28;19906;-92
2022/06/07 12:32:33;;;;;;;2.00;0.60;;;;;;;;;;4978018;28;20042;-91
2022/06/07 12:35:14;;;;;;;1.85;0.55;;;;;;;;;;4960508;28;20023;-90
2022/06/07 12:37:43;;;;;;;5.78;0.88;;;;;;;;;;4975842;28;20035;-90
2022/06/07 12:40:38;;;;;;;0.82;0.40;;;;;;;;;;4959256;28;20022;-90
2022/06/07 12:43:19;;;;;;;3.65;0.93;;;;;;;;;;4963635;28;20404;-88
2022/06/07 12:45:54;;;;;;;0.57;0.45;;;;;;;;;;4972645;28;20027;-90
2022/06/07 12:48:20;;;;;;;1.15;0.57;;;;;;;;;;4957778;28;20086;-89
2022/06/07 12:50:47;;;;;;;1.17;0.50;;;;;;;;;;4958916;28;20058;-89
2022/06/07 12:53:24;;;;;;;1.52;0.70;;;;;;;;;;4960267;28;20031;-90
2022/06/07 12:55:58;;;;;;;0.60;0.57;;;;;;;;;;4963078;28;20030;-89
2022/06/07 12:58:28;;;;;;;3.88;0.60;;;;;;;;;;4961526;28;20047;-91
2022/06/07 13:00:55;;;;;;;2.25;0.60;;;;;;;;;;4991579;28;20023;-90
2022/06/07 13:03:31;;;;;;;1.83;1.05;;;;;;;;;;4980591;28;20030;-91
2022/06/07 13:06:15;;;;;;;2.20;0.57;;;;;;;;;;4980963;28;20011;-90
2022/06/07 13:08:42;;;;;;;0.50;0.50;;;;;;;;;;4996491;28;20054;-91
2022/06/07 13:11:13;;;;;;;7.18;1.63;;;;;;;;;;4963096;28;20031;-89
2022/06/07 13:13:41;;;;;;;2.42;0.70;;;;;;;;;;4962116;28;20519;-87
2022/06/07 13:16:12;;;;;;;1.52;0.80;;;;;;;;;;4979645;28;20034;-90
2022/06/07 13:18:41;;;;;;;0.90;0.60;;;;;;;;;;4979562;28;20098;-90
2022/06/07 13:21:19;;;;;;;1.05;0.65;;;;;;;;;;4979033;28;20051;-88
2022/06/07 13:23:46;;;;;;;3.15;0.68;;;;;;;;;;4962126;28;20456;-90
2022/06/07 13:26:20;;;;;;;0.82;0.47;;;;;;;;;;4963358;28;20027;-90
2022/06/07 13:28:48;;;;;;;0.90;0.63;;;;;;;;;;4970817;28;20063;-91
2022/06/07 13:31:27;;;;;;;1.88;0.57;;;;;;;;;;4975830;28;20039;-86
2022/06/07 13:34:04;;;;;;;1.30;0.77;;;;;;;;;;4983650;28;20031;-88
2022/06/07 13:36:35;;;;;;;2.83;0.73;;;;;;;;;;5082378;23;20583;-89
2022/06/07 13:39:01;;;;;;;0.82;0.70;;;;;;;;;;5021331;28;20042;-87
2022/06/07 13:41:29;;;;;;;2.03;0.52;;;;;;;;;;5023120;28;20033;-87
2022/06/07 13:44:21;;;;;;;0.60;0.50;;;;;;;;;;5025885;28;20029;-90
2022/06/07 13:46:55;;;;;;;1.10;0.70;;;;;;;;;;5038200;28;20033;-89
2022/06/07 13:55:03;;;;;;;1.63;0.40;;;;;;;;;;5021473;28;20099;-89
2022/06/07 13:57:32;;;;;;;0.50;0.20;;;;;;;;;;5037903;28;20022;-91
2022/06/07 13:59:59;;;;;;;0.40;0.40;;;;;;;;;;5043111;28;20022;-89
2022/06/07 14:02:25;;;;;;;1.25;0.70;;;;;;;;;;5042860;28;20018;-90
2022/06/07 14:04:57;;;;;;;2.70;0.73;;;;;;;;;;5044882;28;20049;-90
2022/06/07 14:07:29;;;;;;;7.07;1.15;;;;;;;;;;5035248;28;20029;-91
2022/06/07 14:09:56;;;;;;;1.65;1.10;;;;;;;;;;5033668;28;20029;-91
2022/06/07 14:12:32;;;;;;;2.63;0.80;;;;;;;;;;5034471;28;20120;-89
2022/06/07 14:14:58;;;;;;;1.40;0.90;;;;;;;;;;5032019;28;20053;-93
2022/06/07 14:17:57;;;;;;;1.55;0.88;;;;;;;;;;5016721;28;20065;-92
2022/06/07 14:20:25;;;;;;;1.80;0.80;;;;;;;;;;5008668;28;20056;-93
2022/06/07 14:22:52;;;;;;;5.82;1.25;;;;;;;;;;5033360;28;20036;-92
2022/06/07 14:25:20;;;;;;;2.05;1.00;;;;;;;;;;5030161;28;20037;-91
2022/06/07 14:27:46;;;;;;;1.15;0.80;;;;;;;;;;5026899;28;20083;-93
2022/06/07 14:30:13;;;;;;;2.88;0.73;;;;;;;;;;5036722;28;20026;-91
2022/06/07 14:32:42;;;;;;;0.30;0.30;;;;;;;;;;5035182;28;20026;-94
2022/06/07 14:35:19;;;;;;;4.97;0.93;;;;;;;;;;5033517;28;20098;-92
2022/06/07 14:37:51;;;;;;;2.08;0.80;;;;;;;;;;5034825;28;20041;-92
2022/06/07 14:40:19;;;;;;;0.70;0.70;;;;;;;;;;5036265;28;20036;-92
2022/06/07 14:42:46;;;;;;;3.00;0.50;;;;;;;;;;5033605;28;20029;-93
2022/06/07 14:45:19;;;;;;;1.02;0.60;;;;;;;;;;5019550;28;20033;-92
2022/06/07 14:47:57;;;;;;;1.17;0.60;;;;;;;;;;5020133;28;20499;-92
2022/06/07 14:50:24;;;;;;;0.77;0.68;;;;;;;;;;5052133;28;20034;-93
2022/06/07 14:52:51;;;;;;;2.03;0.80;;;;;;;;;;5043496;28;20344;-91
2022/06/07 14:55:19;;;;;;;1.00;0.82;;;;;;;;;;5047988;28;20048;-91
2022/06/07 14:57:47;;;;;;;0.50;0.50;;;;;;;;;;5046811;28;20073;-94
2022/06/07 15:00:14;;;;;;;1.13;0.70;;;;;;;;;;5025938;28;20033;-90
2022/06/07 15:02:41;;;;;;;0.60;0.40;;;;;;;;;;5022792;28;20537;-90
2022/06/07 15:05:09;;;;;;;0.70;0.50;;;;;;;;;;5032101;28;20022;-89
2022/06/07 15:07:56;;;;;;;1.45;0.50;;;;;;;;;;5015099;28;20030;-91
2022/06/07 15:10:24;;;;;;;0.90;0.40;;;;;;;;;;5020731;28;20037;-91
2022/06/07 15:12:50;;;;;;;0.55;0.47;;;;;;;;;;5033623;28;20033;-91
2022/06/07 15:15:16;;;;;;;0.68;0.50;;;;;;;;;;5036895;28;20021;-92
2022/06/07 15:17:45;;;;;;;0.75;0.60;;;;;;;;;;5034339;28;20140;-91
2022/06/07 15:20:17;;;;;;;2.80;0.68;;;;;;;;;;5033347;28;20117;-92
2022/06/07 15:22:43;;;;;;;0.30;0.30;;;;;;;;;;5034747;28;20025;-91
2022/06/07 15:25:15;;;;;;;1.08;0.60;;;;;;;;;;5034129;28;20024;-89
2022/06/07 15:27:41;;;;;;;1.85;0.90;;;;;;;;;;5032773;28;20025;-90
2022/06/07 15:30:07;;;;;;;2.05;0.90;;;;;;;;;;5033758;28;20041;-89
2022/06/07 15:32:33;;;;;;;3.42;0.57;;;;;;;;;;5033618;28;20032;-89
2022/06/07 15:35:06;;;;;;;0.63;0.52;;;;;;;;;;5032894;28;20036;-89
2022/06/07 15:37:37;;;;;;;1.95;0.77;;;;;;;;;;5044628;28;20097;-93
2022/06/07 15:40:06;;;;;;;3.42;0.73;;;;;;;;;;5055527;28;20009;-90
2022/06/07 15:42:47;;;;;;;1.67;0.90;;;;;;;;;;5030157;28;20033;-91
2022/06/07 15:45:15;;;;;;;5.35;1.00;;;;;;;;;;5013953;28;20475;-89
2022/06/07 15:47:41;;;;;;;2.30;0.98;;;;;;;;;;5012637;28;20065;-90
2022/06/07 15:50:09;;;;;;;0.85;0.85;;;;;;;;;;5013986;28;20030;-89
2022/06/07 15:52:36;;;;;;;2.08;1.02;;;;;;;;;;5025150;28;20494;-88
2022/06/07 15:55:03;;;;;;;2.55;1.38;;;;;;;;;;5032634;28;20037;-89
2022/06/07 16:00:14;;;;;;;1.52;1.42;;;;;;;;;;5033874;28;20083;-90
2022/06/07 16:02:41;;;;;;;2.55;1.00;;;;;;;;;;5032091;28;20025;-92
2022/06/07 16:05:08;;;;;;;2.47;1.05;;;;;;;;;;5031789;28;20482;-90
2022/06/07 16:07:34;;;;;;;3.47;1.00;;;;;;;;;;5026394;28;20029;-92
2022/06/07 16:10:01;;;;;;;1.45;1.10;;;;;;;;;;5013863;28;20046;-92
2022/06/07 16:12:27;;;;;;;3.45;0.93;;;;;;;;;;5024917;28;20026;-91
2022/06/07 16:14:53;;;;;;;2.35;0.80;;;;;;;;;;5032204;28;20028;-90
2022/06/07 16:17:19;;;;;;;2.25;0.90;;;;;;;;;;5033980;28;20030;-90
2022/06/07 16:19:45;;;;;;;1.42;0.80;;;;;;;;;;5032776;28;20472;-90
2022/06/07 16:22:11;;;;;;;1.67;0.90;;;;;;;;;;5033901;28;20241;-91
2022/06/07 16:24:37;;;;;;;2.70;0.90;;;;;;;;;;5038145;28;20026;-91
2022/06/07 16:33:18;;;;;;;2.45;0.93;;;;;;;;;;5023849;28;20028;-88
2022/06/07 16:35:21;;;;;;;1.75;0.68;;;;;;;;;;5040529;28;20044;-93
2022/06/07 16:37:47;;;;;;;3.47;0.98;;;;;;;;;;5032606;28;20033;-93
2022/06/07 16:40:13;;;;;;;2.25;0.90;;;;;;;;;;5023500;28;20026;-93
2022/06/07 16:42:39;;;;;;;0.93;0.80;;;;;;;;;;5048175;28;20025;-93
2022/06/07 16:45:05;;;;;;;5.43;0.90;;;;;;;;;;5043816;28;20021;-91
2022/06/07 16:47:31;;;;;;;5.88;0.88;;;;;;;;;;5045388;28;20041;-94
2022/06/07 16:49:58;;;;;;;3.08;1.20;;;;;;;;;;5052531;28;20033;-94
2022/06/07 16:52:24;;;;;;;1.58;0.80;;;;;;;;;;5052835;28;20017;-93
2022/06/07 16:54:50;;;;;;;5.68;1.15;;;;;;;;;;5052875;28;20045;-91
2022/06/07 16:57:19;;;;;;;2.50;0.90;;;;;;;;;;5052958;28;20029;-94
2022/06/07 16:59:46;;;;;;;2.42;0.95;;;;;;;;;;5055787;28;20021;-92
2022/06/07 17:02:14;;;;;;;1.80;0.93;;;;;;;;;;5055178;28;20068;-92
2022/06/07 17:04:40;;;;;;;1.13;0.82;;;;;;;;;;5036384;28;20021;-92
2022/06/07 17:07:06;;;;;;;2.45;0.90;;;;;;;;;;5034401;28;20029;-92
2022/06/07 17:09:34;;;;;;;1.75;0.90;;;;;;;;;;5035448;28;20033;-92
2022/06/07 17:12:01;;;;;;;2.85;0.82;;;;;;;;;;5030862;28;20046;-91
2022/06/07 17:14:27;;;;;;;3.38;0.70;;;;;;;;;;5045823;28;20025;-92
2022/06/07 17:16:55;;;;;;;1.40;0.80;;;;;;;;;;5044342;28;20479;-93
2022/06/07 17:19:23;;;;;;;2.88;1.60;;;;;;;;;;5049935;28;20034;-91
2022/06/07 17:21:50;;;;;;;3.03;0.70;;;;;;;;;;5047779;28;20026;-92
2022/06/07 17:24:16;;;;;;;2.50;0.93;;;;;;;;;;5044216;28;20071;-92
2022/06/07 17:26:44;;;;;;;3.45;1.02;;;;;;;;;;5043527;28;20022;-93
2022/06/07 17:29:11;;;;;;;1.80;0.88;;;;;;;;;;5039745;28;20022;-93
2022/06/07 17:31:37;;;;;;;4.40;1.27;;;;;;;;;;5040006;28;20369;-91
2022/06/07 17:34:05;;;;;;;1.02;0.75;;;;;;;;;;5036133;28;20022;-92
2022/06/07 17:36:31;;;;;;;2.42;0.93;;;;;;;;;;5037377;28;20045;-91
2022/06/07 17:38:57;;;;;;;2.80;0.90;;;;;;;;;;5034645;28;20021;-91
2022/06/07 17:41:24;;;;;;;4.95;0.65;;;;;;;;;;5036024;28;20029;-90
2022/06/07 17:43:50;;;;;;;1.77;0.70;;;;;;;;;;5031003;28;20021;-90
2022/06/07 17:46:17;;;;;;;7.35;1.00;;;;;;;;;;5014482;28;20032;-89
2022/06/07 17:48:43;;;;;;;2.83;0.98;;;;;;;;;;5018439;28;20034;-90
2022/06/07 17:51:09;;;;;;;4.10;0.90;;;;;;;;;;5039925;28;20074;-94
2022/06/07 17:53:36;;;;;;;1.88;0.93;;;;;;;;;;5037306;28;20120;-89
2022/06/07 17:56:02;;;;;;;2.03;0.77;;;;;;;;;;5033694;28;20034;-89
2022/06/07 17:58:28;;;;;;;3.45;0.90;;;;;;;;;;5030215;28;20049;-91
2022/06/07 18:00:54;;;;;;;4.47;1.00;;;;;;;;;;5015631;28;20026;-90
2022/06/07 18:03:22;;;;;;;5.40;1.10;;;;;;;;;;5022874;28;20013;-89
2022/06/07 18:05:49;;;;;;;4.20;1.00;;;;;;;;;;5035128;28;20112;-90
2022/06/07 18:08:15;;;;;;;8.30;1.38;;;;;;;;;;5028610;28;20112;-90
2022/06/07 18:10:42;;;;;;;2.45;0.82;;;;;;;;;;5035011;28;20025;-91
2022/06/07 18:13:09;;;;;;;5.53;1.08;;;;;;;;;;5033737;28;20025;-91
2022/06/07 18:15:41;;;;;;;5.72;1.00;;;;;;;;;;5035926;28;20033;-90
2022/06/07 18:18:08;;;;;;;2.05;0.80;;;;;;;;;;5038697;28;20018;-90
2022/06/07 18:20:34;;;;;;;1.83;0.60;;;;;;;;;;5043332;28;20032;-92
2022/06/07 18:23:00;;;;;;;2.40;0.90;;;;;;;;;;5037002;28;20464;-91
2022/06/07 18:25:29;;;;;;;4.28;1.25;;;;;;;;;;5032260;28;20407;-92
2022/06/07 18:27:56;;;;;;;4.15;0.70;;;;;;;;;;5014855;28;20022;-90
2022/06/07 18:30:22;;;;;;;5.70;0.98;;;;;;;;;;5014541;28;20021;-89
2022/06/07 18:32:49;;;;;;;4.05;0.93;;;;;;;;;;5033630;28;20132;-90
2022/06/07 18:35:20;;;;;;;5.15;1.00;;;;;;;;;;5040475;28;20033;-89
2022/06/07 18:37:46;;;;;;;5.07;0.75;;;;;;;;;;5014804;28;20037;-90
2022/06/07 18:40:12;;;;;;;4.03;1.58;;;;;;;;;;5013691;28;20157;-90
2022/06/07 18:42:38;;;;;;;3.63;0.80;;;;;;;;;;5029869;28;20487;-90
2022/06/07 18:45:06;;;;;;;3.45;0.82;;;;;;;;;;5030452;28;20483;-93
2022/06/07 18:47:34;;;;;;;3.38;0.77;;;;;;;;;;5031279;28;20047;-92
2022/06/07 18:50:01;;;;;;;2.83;0.73;;;;;;;;;;5043863;28;20503;-92
2022/06/07 18:52:27;;;;;;;6.50;1.00;;;;;;;;;;5043287;28;20048;-92